createdAt,value
2017-07-28T00:00:49.871Z,99.2
2017-07-28T00:01:51.552Z,99.7
2017-07-28T00:02:53.225Z,99.7
2017-07-28T00:03:54.890Z,99.8
2017-07-28T00:04:56.555Z,98.9
2017-07-28T00:05:58.209Z,99.1
2017-07-28T00:06:59.877Z,98.4
2017-07-28T00:08:01.540Z,99.1
2017-07-28T00:09:03.207Z,98.4
2017-07-28T00:10:04.871Z,98.7
2017-07-28T00:11:06.534Z,98.7
2017-07-28T00:12:08.211Z,98.6
2017-07-28T00:13:09.875Z,99.0
2017-07-28T00:14:11.529Z,98.9
2017-07-28T00:15:13.185Z,98.8
2017-07-28T00:16:14.845Z,98.6
2017-07-28T00:17:16.513Z,98.8
2017-07-28T00:18:18.191Z,98.9
2017-07-28T00:19:19.854Z,98.6
2017-07-28T00:20:21.506Z,98.3
2017-07-28T00:21:23.171Z,98.7
2017-07-28T00:22:24.835Z,98.5
2017-07-28T00:23:26.495Z,98.7
2017-07-28T00:24:28.154Z,98.6
2017-07-28T00:25:29.819Z,98.7
2017-07-28T00:26:31.471Z,98.6
2017-07-28T00:27:33.141Z,99.0
2017-07-28T00:28:34.795Z,97.7
2017-07-28T00:29:36.460Z,97.7
2017-07-28T00:30:38.131Z,97.7
2017-07-28T00:31:39.793Z,98.5
2017-07-28T00:32:41.453Z,98.2
2017-07-28T00:33:43.130Z,98.6
2017-07-28T00:34:44.802Z,97.8
2017-07-28T00:35:46.461Z,97.6
2017-07-28T00:36:48.139Z,98.0
2017-07-28T00:37:49.802Z,97.6
2017-07-28T00:38:51.475Z,98.0
2017-07-28T00:39:53.144Z,97.9
2017-07-28T00:40:54.807Z,97.9
2017-07-28T00:41:56.459Z,97.9
2017-07-28T00:42:58.148Z,98.1
2017-07-28T00:43:59.815Z,97.9
2017-07-28T00:45:01.518Z,98.1
2017-07-28T00:46:03.188Z,98.4
2017-07-28T00:47:04.847Z,98.4
2017-07-28T00:48:06.508Z,98.4
2017-07-28T00:49:08.207Z,98.4
2017-07-28T00:50:09.860Z,98.4
2017-07-28T00:51:11.518Z,98.7
2017-07-28T00:52:13.179Z,98.6
2017-07-28T00:53:14.839Z,98.8
2017-07-28T00:54:16.500Z,98.8
2017-07-28T00:55:18.161Z,98.9
2017-07-28T00:56:19.809Z,98.8
2017-07-28T00:57:21.479Z,98.8
2017-07-28T00:58:23.145Z,98.8
2017-07-28T00:59:24.807Z,98.0
2017-07-28T01:00:26.476Z,97.6
2017-07-28T01:01:28.148Z,97.9
2017-07-28T01:02:29.822Z,98.0
2017-07-28T01:03:31.529Z,97.6
2017-07-28T01:04:33.182Z,97.9
2017-07-28T01:05:34.845Z,97.9
2017-07-28T01:06:36.507Z,97.6
2017-07-28T01:07:38.169Z,98.4
2017-07-28T01:08:39.833Z,98.7
2017-07-28T01:09:41.495Z,98.6
2017-07-28T01:10:43.158Z,98.7
2017-07-28T01:11:44.820Z,98.4
2017-07-28T01:12:46.477Z,98.5
2017-07-28T01:13:48.146Z,98.5
2017-07-28T01:14:49.798Z,98.2
2017-07-28T01:15:51.457Z,98.6
2017-07-28T01:16:53.120Z,98.9
2017-07-28T01:17:54.775Z,98.9
2017-07-28T01:18:56.439Z,98.8
2017-07-28T01:19:58.120Z,98.8
2017-07-28T01:20:59.786Z,99.1
2017-07-28T01:22:01.436Z,98.8
2017-07-28T01:23:03.109Z,98.9
2017-07-28T01:24:04.772Z,98.8
2017-07-28T01:25:06.433Z,98.4
2017-07-28T01:26:08.091Z,99.0
2017-07-28T01:27:09.755Z,98.9
2017-07-28T01:28:11.415Z,99.0
2017-07-28T01:29:13.075Z,98.8
2017-07-28T01:30:14.742Z,99.0
2017-07-28T01:31:16.411Z,98.8
2017-07-28T01:32:18.072Z,98.9
2017-07-28T01:33:19.728Z,98.7
2017-07-28T01:34:21.395Z,98.8
2017-07-28T01:35:23.056Z,98.8
2017-07-28T01:36:24.727Z,98.9
2017-07-28T01:37:26.385Z,98.3
2017-07-28T01:38:28.054Z,98.7
2017-07-28T01:39:29.727Z,98.8
2017-07-28T01:40:31.389Z,98.8
2017-07-28T01:41:33.182Z,98.9
2017-07-28T01:42:34.841Z,99.6
2017-07-28T01:43:36.502Z,99.7
2017-07-28T01:44:38.173Z,98.7
2017-07-28T01:45:39.830Z,99.6
2017-07-28T01:46:41.487Z,99.6
2017-07-28T01:47:43.156Z,99.1
2017-07-28T01:48:44.814Z,99.2
2017-07-28T01:49:46.475Z,99.4
2017-07-28T01:50:48.137Z,99.4
2017-07-28T01:51:49.806Z,99.1
2017-07-28T01:52:51.475Z,99.3
2017-07-28T01:53:53.132Z,99.4
2017-07-28T01:54:54.791Z,99.3
2017-07-28T01:55:56.457Z,98.9
2017-07-28T01:56:58.115Z,98.9
2017-07-28T01:57:59.783Z,99.0
2017-07-28T01:59:01.443Z,99.4
2017-07-28T02:00:03.117Z,100.0
2017-07-28T02:01:04.787Z,100.0
2017-07-28T02:02:06.452Z,99.1
2017-07-28T02:03:08.120Z,99.2
2017-07-28T02:04:09.771Z,99.2
2017-07-28T02:05:11.433Z,100.0
2017-07-28T02:06:13.105Z,99.6
2017-07-28T02:07:14.771Z,99.7
2017-07-28T02:08:16.433Z,99.8
2017-07-28T02:09:18.102Z,99.8
2017-07-28T02:10:19.758Z,99.5
2017-07-28T02:11:21.428Z,99.2
2017-07-28T02:12:23.090Z,99.5
2017-07-28T02:13:24.748Z,99.3
2017-07-28T02:14:26.364Z,99.2
2017-07-28T02:15:28.024Z,99.2
2017-07-28T02:16:29.688Z,99.6
2017-07-28T02:17:31.436Z,99.9
2017-07-28T02:18:33.097Z,99.7
2017-07-28T02:19:34.763Z,99.8
2017-07-28T02:20:36.420Z,99.9
2017-07-28T02:21:38.083Z,99.9
2017-07-28T02:22:39.753Z,99.9
2017-07-28T02:23:41.425Z,99.9
2017-07-28T02:24:43.118Z,99.5
2017-07-28T02:25:44.774Z,99.4
2017-07-28T02:26:46.434Z,99.8
2017-07-28T02:27:48.097Z,99.9
2017-07-28T02:28:49.766Z,99.9
2017-07-28T02:29:51.423Z,99.9
2017-07-28T02:30:53.079Z,99.9
2017-07-28T02:31:54.738Z,100.0
2017-07-28T02:32:56.403Z,100.0
2017-07-28T02:33:58.066Z,99.9
2017-07-28T02:34:59.732Z,100.0
2017-07-28T02:36:01.406Z,100.0
2017-07-28T02:37:03.061Z,100.0
2017-07-28T02:38:04.720Z,100.0
2017-07-28T02:39:06.392Z,100.0
2017-07-28T02:40:08.062Z,100.0
2017-07-28T02:41:09.721Z,100.0
2017-07-28T02:42:11.393Z,100.0
2017-07-28T02:43:13.057Z,100.0
2017-07-28T02:44:14.715Z,100.0
2017-07-28T02:45:16.370Z,100.0
2017-07-28T02:46:18.037Z,100.0
2017-07-28T02:47:19.716Z,100.0
2017-07-28T02:48:21.384Z,100.0
2017-07-28T02:49:23.053Z,100.0
2017-07-28T02:50:24.722Z,100.0
2017-07-28T02:51:26.376Z,100.0
2017-07-28T02:52:28.124Z,100.0
2017-07-28T02:53:29.790Z,100.0
2017-07-28T02:54:31.452Z,100.0
2017-07-28T02:55:33.113Z,100.0
2017-07-28T02:56:34.769Z,100.0
2017-07-28T02:57:36.448Z,100.0
2017-07-28T02:58:38.102Z,100.0
2017-07-28T02:59:39.764Z,100.0
2017-07-28T03:00:41.435Z,100.0
2017-07-28T03:01:43.096Z,100.0
2017-07-28T03:02:44.756Z,100.0
2017-07-28T03:03:46.417Z,100.0
2017-07-28T03:04:48.079Z,100.0
2017-07-28T03:05:49.744Z,99.9
2017-07-28T03:06:51.408Z,100.0
2017-07-28T03:07:53.076Z,100.0
2017-07-28T03:08:54.754Z,100.0
2017-07-28T03:09:56.416Z,100.0
2017-07-28T03:10:58.083Z,100.0
2017-07-28T03:11:59.759Z,100.0
2017-07-28T03:13:01.422Z,100.0
2017-07-28T03:14:03.078Z,100.0
2017-07-28T03:15:04.741Z,100.0
2017-07-28T03:16:06.417Z,100.0
2017-07-28T03:17:08.079Z,100.0
2017-07-28T03:18:09.744Z,100.0
2017-07-28T03:19:11.403Z,100.0
2017-07-28T03:20:13.067Z,100.0
2017-07-28T03:21:14.727Z,100.0
2017-07-28T03:22:16.402Z,100.0
2017-07-28T03:23:18.069Z,100.0
2017-07-28T03:24:19.745Z,100.0
2017-07-28T03:25:21.417Z,100.0
2017-07-28T03:26:23.081Z,99.9
2017-07-28T03:27:24.747Z,100.0
2017-07-28T03:28:26.409Z,100.0
2017-07-28T03:29:28.073Z,100.0
2017-07-28T03:30:29.743Z,100.0
2017-07-28T03:31:31.408Z,100.0
2017-07-28T03:32:33.082Z,100.0
2017-07-28T03:33:35.417Z,100.0
2017-07-28T03:34:37.085Z,100.0
2017-07-28T03:35:38.748Z,100.0
2017-07-28T03:36:40.416Z,100.0
2017-07-28T03:37:42.080Z,100.0
2017-07-28T03:38:43.744Z,100.0
2017-07-28T03:39:45.420Z,100.0
2017-07-28T03:40:47.084Z,100.0
2017-07-28T03:41:48.749Z,100.0
2017-07-28T03:42:50.414Z,100.0
2017-07-28T03:43:52.076Z,100.0
2017-07-28T03:44:53.737Z,100.0
2017-07-28T03:45:55.396Z,100.0
2017-07-28T03:46:57.062Z,100.0
2017-07-28T03:47:58.736Z,100.0
2017-07-28T03:49:00.399Z,100.0
2017-07-28T03:50:02.070Z,100.0
2017-07-28T03:51:03.727Z,100.0
2017-07-28T03:52:05.397Z,100.0
2017-07-28T03:53:07.055Z,100.0
2017-07-28T03:54:08.718Z,100.0
2017-07-28T03:55:10.469Z,100.0
2017-07-28T03:56:12.133Z,100.0
2017-07-28T03:57:13.798Z,100.0
2017-07-28T03:58:15.464Z,100.0
2017-07-28T03:59:17.198Z,100.0
2017-07-28T04:00:18.869Z,100.0
2017-07-28T04:01:20.546Z,100.0
2017-07-28T04:02:22.223Z,100.0
2017-07-28T04:03:23.891Z,100.0
2017-07-28T04:04:25.634Z,100.0
2017-07-28T04:05:27.297Z,100.0
2017-07-28T04:06:28.965Z,100.0
2017-07-28T04:07:30.625Z,100.0
2017-07-28T04:08:32.301Z,100.0
2017-07-28T04:09:33.963Z,100.0
2017-07-28T04:10:35.626Z,100.0
2017-07-28T04:11:37.295Z,100.0
2017-07-28T04:12:38.957Z,100.0
2017-07-28T04:13:40.616Z,100.0
2017-07-28T04:14:42.283Z,100.0
2017-07-28T04:15:43.948Z,100.0
2017-07-28T04:16:45.618Z,100.0
2017-07-28T04:17:47.285Z,100.0
2017-07-28T04:18:48.949Z,100.0
2017-07-28T04:19:50.614Z,100.0
2017-07-28T04:20:52.281Z,100.0
2017-07-28T04:21:53.945Z,100.0
2017-07-28T04:22:55.629Z,100.0
2017-07-28T04:23:57.299Z,100.0
2017-07-28T04:24:58.963Z,100.0
2017-07-28T04:26:00.632Z,100.0
2017-07-28T04:27:02.308Z,100.0
2017-07-28T04:28:03.965Z,100.0
2017-07-28T04:29:05.634Z,100.0
2017-07-28T04:30:07.300Z,100.0
2017-07-28T04:31:08.976Z,100.0
2017-07-28T04:32:10.651Z,100.0
2017-07-28T04:33:12.317Z,100.0
2017-07-28T04:34:13.983Z,100.0
2017-07-28T04:35:15.734Z,100.0
2017-07-28T04:36:17.407Z,100.0
2017-07-28T04:37:19.072Z,100.0
2017-07-28T04:38:20.737Z,100.0
2017-07-28T04:39:22.405Z,100.0
2017-07-28T04:40:24.058Z,100.0
2017-07-28T04:41:25.725Z,100.0
2017-07-28T04:42:27.417Z,100.0
2017-07-28T04:43:29.083Z,100.0
2017-07-28T04:44:30.795Z,100.0
2017-07-28T04:45:32.457Z,100.0
2017-07-28T04:46:34.124Z,100.0
2017-07-28T04:47:35.798Z,99.9
2017-07-28T04:48:37.453Z,99.9
2017-07-28T04:49:39.118Z,99.9
2017-07-28T04:50:40.785Z,100.0
2017-07-28T04:51:42.450Z,99.9
2017-07-28T04:52:44.127Z,100.0
2017-07-28T04:53:45.794Z,100.0
2017-07-28T04:54:47.465Z,100.0
2017-07-28T04:55:49.130Z,100.0
2017-07-28T04:56:50.796Z,99.7
2017-07-28T04:57:52.461Z,99.7
2017-07-28T04:58:54.123Z,99.5
2017-07-28T04:59:55.832Z,99.3
2017-07-28T05:00:57.474Z,99.3
2017-07-28T05:01:59.132Z,99.0
2017-07-28T05:03:00.809Z,98.5
2017-07-28T05:04:02.460Z,97.8
2017-07-28T05:05:04.153Z,97.4
2017-07-28T05:06:05.819Z,96.2
2017-07-28T05:07:07.490Z,95.5
2017-07-28T05:08:09.152Z,95.1
2017-07-28T05:09:10.814Z,94.9
2017-07-28T05:10:12.481Z,94.5
2017-07-28T05:11:14.148Z,93.4
2017-07-28T05:12:15.815Z,92.0
2017-07-28T05:13:17.478Z,93.5
2017-07-28T05:14:19.152Z,93.2
2017-07-28T05:15:20.827Z,91.9
2017-07-28T05:16:22.494Z,90.7
2017-07-28T05:17:24.155Z,90.5
2017-07-28T05:18:25.831Z,91.0
2017-07-28T05:19:27.498Z,91.3
2017-07-28T05:20:29.164Z,88.4
2017-07-28T05:21:30.836Z,89.0
2017-07-28T05:22:32.508Z,89.6
2017-07-28T05:23:34.166Z,87.0
2017-07-28T05:24:35.835Z,88.8
2017-07-28T05:25:37.498Z,87.9
2017-07-28T05:26:39.165Z,87.3
2017-07-28T05:27:40.850Z,88.7
2017-07-28T05:28:42.507Z,87.1
2017-07-28T05:29:44.171Z,88.7
2017-07-28T05:30:45.836Z,88.9
2017-07-28T05:31:47.506Z,87.9
2017-07-28T05:32:49.173Z,85.9
2017-07-28T05:33:50.844Z,86.3
2017-07-28T05:34:52.507Z,85.8
2017-07-28T05:35:54.175Z,86.7
2017-07-28T05:36:55.850Z,88.8
2017-07-28T05:37:57.520Z,88.7
2017-07-28T05:38:59.186Z,89.1
2017-07-28T05:40:00.853Z,88.8
2017-07-28T05:41:02.524Z,88.5
2017-07-28T05:42:04.185Z,90.4
2017-07-28T05:43:05.852Z,90.8
2017-07-28T05:44:07.513Z,91.0
2017-07-28T05:45:09.182Z,91.4
2017-07-28T05:46:10.849Z,90.8
2017-07-28T05:47:12.520Z,90.6
2017-07-28T05:48:14.196Z,90.5
2017-07-28T05:49:15.858Z,91.4
2017-07-28T05:50:17.575Z,90.9
2017-07-28T05:51:19.241Z,91.5
2017-07-28T05:52:20.948Z,91.3
2017-07-28T05:53:22.633Z,91.6
2017-07-28T05:54:24.302Z,90.4
2017-07-28T05:55:25.965Z,90.8
2017-07-28T05:56:27.641Z,90.5
2017-07-28T05:57:29.328Z,90.5
2017-07-28T05:58:31.083Z,90.2
2017-07-28T05:59:32.734Z,90.8
2017-07-28T06:00:34.409Z,91.8
2017-07-28T06:01:36.083Z,89.8
2017-07-28T06:02:37.751Z,88.7
2017-07-28T06:03:39.423Z,88.0
2017-07-28T06:04:41.089Z,89.2
2017-07-28T06:05:42.761Z,88.3
2017-07-28T06:06:44.421Z,87.7
2017-07-28T06:07:46.093Z,86.5
2017-07-28T06:08:47.765Z,86.4
2017-07-28T06:09:49.435Z,86.0
2017-07-28T06:10:51.107Z,86.2
2017-07-28T06:11:52.775Z,86.6
2017-07-28T06:12:54.440Z,86.3
2017-07-28T06:13:56.107Z,86.4
2017-07-28T06:14:57.852Z,85.7
2017-07-28T06:15:59.518Z,87.3
2017-07-28T06:17:01.196Z,87.1
2017-07-28T06:18:02.869Z,87.1
2017-07-28T06:19:04.546Z,86.4
2017-07-28T06:20:06.217Z,87.9
2017-07-28T06:21:07.893Z,87.1
2017-07-28T06:22:09.569Z,88.1
2017-07-28T06:23:11.250Z,86.4
2017-07-28T06:24:12.925Z,86.1
2017-07-28T06:25:14.611Z,86.1
2017-07-28T06:26:16.282Z,85.8
2017-07-28T06:27:17.961Z,86.5
2017-07-28T06:28:19.619Z,87.3
2017-07-28T06:29:21.287Z,86.1
2017-07-28T06:30:22.954Z,85.8
2017-07-28T06:31:24.621Z,86.5
2017-07-28T06:32:26.291Z,85.4
2017-07-28T06:33:28.482Z,85.6
2017-07-28T06:34:30.136Z,84.9
2017-07-28T06:35:31.824Z,83.7
2017-07-28T06:36:33.485Z,83.5
2017-07-28T06:37:35.158Z,80.9
2017-07-28T06:38:36.824Z,79.7
2017-07-28T06:39:38.497Z,78.1
2017-07-28T06:40:40.165Z,77.2
2017-07-28T06:41:41.827Z,77.0
2017-07-28T06:42:43.509Z,78.7
2017-07-28T06:43:45.183Z,79.8
2017-07-28T06:44:46.857Z,79.9
2017-07-28T06:45:48.523Z,80.6
2017-07-28T06:46:50.197Z,81.4
2017-07-28T06:47:51.863Z,80.7
2017-07-28T06:48:53.540Z,80.8
2017-07-28T06:49:55.212Z,81.3
2017-07-28T06:50:56.876Z,80.4
2017-07-28T06:51:58.554Z,81.0
2017-07-28T06:53:00.234Z,81.6
2017-07-28T06:54:01.919Z,80.6
2017-07-28T06:55:03.591Z,80.3
2017-07-28T06:56:05.263Z,79.2
2017-07-28T06:57:06.934Z,79.2
2017-07-28T06:58:08.615Z,78.8
2017-07-28T06:59:10.290Z,78.9
2017-07-28T07:00:11.967Z,79.1
2017-07-28T07:01:13.632Z,78.0
2017-07-28T07:02:15.313Z,78.9
2017-07-28T07:03:16.981Z,79.3
2017-07-28T07:04:18.643Z,77.8
2017-07-28T07:05:20.332Z,78.6
2017-07-28T07:06:22.017Z,79.3
2017-07-28T07:07:23.693Z,79.2
2017-07-28T07:08:25.367Z,77.2
2017-07-28T07:09:27.047Z,77.6
2017-07-28T07:10:28.720Z,76.2
2017-07-28T07:11:30.388Z,74.9
2017-07-28T07:12:32.058Z,71.8
2017-07-28T07:13:33.725Z,70.0
2017-07-28T07:14:35.400Z,69.7
2017-07-28T07:15:37.082Z,70.3
2017-07-28T07:16:38.772Z,70.6
2017-07-28T07:17:40.435Z,70.4
2017-07-28T07:18:42.152Z,70.6
2017-07-28T07:19:43.823Z,70.6
2017-07-28T07:20:45.494Z,71.1
2017-07-28T07:21:47.167Z,72.0
2017-07-28T07:22:48.852Z,74.0
2017-07-28T07:23:50.531Z,74.2
2017-07-28T07:24:52.225Z,73.3
2017-07-28T07:25:53.905Z,72.8
2017-07-28T07:26:55.587Z,72.6
2017-07-28T07:27:57.260Z,73.9
2017-07-28T07:28:58.952Z,75.2
2017-07-28T07:30:00.624Z,76.4
2017-07-28T07:31:02.291Z,76.2
2017-07-28T07:32:03.967Z,76.6
2017-07-28T07:33:05.638Z,76.5
2017-07-28T07:34:07.310Z,75.5
2017-07-28T07:35:08.992Z,76.4
2017-07-28T07:36:10.670Z,76.6
2017-07-28T07:37:12.352Z,75.8
2017-07-28T07:38:14.061Z,75.6
2017-07-28T07:39:15.781Z,74.9
2017-07-28T07:40:17.449Z,73.0
2017-07-28T07:41:19.144Z,71.9
2017-07-28T07:42:20.791Z,72.3
2017-07-28T07:43:22.468Z,72.7
2017-07-28T07:44:24.139Z,73.3
2017-07-28T07:45:25.811Z,74.0
2017-07-28T07:46:27.481Z,74.6
2017-07-28T07:47:29.155Z,74.7
2017-07-28T07:48:30.825Z,74.3
2017-07-28T07:49:32.526Z,74.1
2017-07-28T07:50:34.202Z,72.9
2017-07-28T07:51:35.873Z,71.9
2017-07-28T07:52:37.544Z,71.9
2017-07-28T07:53:39.244Z,71.6
2017-07-28T07:54:40.894Z,72.1
2017-07-28T07:55:42.569Z,72.6
2017-07-28T07:56:44.238Z,72.7
2017-07-28T07:57:45.924Z,72.6
2017-07-28T07:58:47.593Z,72.9
2017-07-28T07:59:49.281Z,72.1
2017-07-28T08:00:50.966Z,71.4
2017-07-28T08:01:52.654Z,71.3
2017-07-28T08:02:54.349Z,71.6
2017-07-28T08:03:56.042Z,72.7
2017-07-28T08:04:57.715Z,72.6
2017-07-28T08:05:59.397Z,70.7
2017-07-28T08:07:02.044Z,70.2
2017-07-28T08:08:03.787Z,68.0
2017-07-28T08:09:05.460Z,66.7
2017-07-28T08:10:07.128Z,67.7
2017-07-28T08:11:08.801Z,67.8
2017-07-28T08:12:10.517Z,67.9
2017-07-28T08:13:12.188Z,68.9
2017-07-28T08:14:13.870Z,69.2
2017-07-28T08:15:15.543Z,69.8
2017-07-28T08:16:17.221Z,69.2
2017-07-28T08:17:18.886Z,69.7
2017-07-28T08:18:20.555Z,70.5
2017-07-28T08:19:22.616Z,70.8
2017-07-28T08:20:24.278Z,71.3
2017-07-28T08:21:25.948Z,71.9
2017-07-28T08:22:27.656Z,71.7
2017-07-28T08:23:29.337Z,71.4
2017-07-28T08:24:31.015Z,71.2
2017-07-28T08:25:32.679Z,70.9
2017-07-28T08:26:34.347Z,70.7
2017-07-28T08:27:36.019Z,70.7
2017-07-28T08:28:37.695Z,71.0
2017-07-28T08:29:39.366Z,70.3
2017-07-28T08:30:41.040Z,71.0
2017-07-28T08:31:42.727Z,72.2
2017-07-28T08:32:44.412Z,72.2
2017-07-28T08:33:46.091Z,72.2
2017-07-28T08:34:47.782Z,72.4
2017-07-28T08:35:49.460Z,72.9
2017-07-28T08:36:51.131Z,72.4
2017-07-28T08:37:52.812Z,71.9
2017-07-28T08:38:54.479Z,71.6
2017-07-28T08:39:56.289Z,71.3
2017-07-28T08:40:57.971Z,71.4
2017-07-28T08:41:59.680Z,72.4
2017-07-28T08:43:01.371Z,73.1
2017-07-28T08:44:03.067Z,74.3
2017-07-28T08:45:04.884Z,74.7
2017-07-28T08:46:06.623Z,74.3
2017-07-28T08:47:08.405Z,74.1
2017-07-28T08:48:10.228Z,75.5
2017-07-28T08:49:11.994Z,75.5
2017-07-28T08:50:13.809Z,75.0
2017-07-28T08:51:15.602Z,74.5
2017-07-28T08:52:17.532Z,73.7
2017-07-28T08:53:19.275Z,73.9
2017-07-28T08:54:21.132Z,73.3
2017-07-28T08:55:23.012Z,73.4
2017-07-28T08:56:24.847Z,73.0
2017-07-28T08:57:26.708Z,73.2
2017-07-28T08:58:28.555Z,73.4
2017-07-28T08:59:30.400Z,73.6
2017-07-28T09:00:32.247Z,74.4
2017-07-28T09:01:34.077Z,73.9
2017-07-28T09:02:35.757Z,73.9
2017-07-28T09:03:37.884Z,73.0
2017-07-28T09:04:39.548Z,71.4
2017-07-28T09:05:41.225Z,69.4
2017-07-28T09:06:42.892Z,64.5
2017-07-28T09:07:44.577Z,62.7
2017-07-28T09:08:46.255Z,61.0
2017-07-28T09:09:47.934Z,59.6
2017-07-28T09:10:49.617Z,57.0
2017-07-28T09:11:51.300Z,57.9
2017-07-28T09:12:52.989Z,59.4
2017-07-28T09:13:54.667Z,58.9
2017-07-28T09:14:56.369Z,58.9
2017-07-28T09:15:58.042Z,58.9
2017-07-28T09:16:59.721Z,59.2
2017-07-28T09:18:01.440Z,58.6
2017-07-28T09:19:03.119Z,55.4
2017-07-28T09:20:04.796Z,58.4
2017-07-28T09:21:06.470Z,60.1
2017-07-28T09:22:08.154Z,61.6
2017-07-28T09:23:09.836Z,62.1
2017-07-28T09:24:11.515Z,62.1
2017-07-28T09:25:13.201Z,61.7
2017-07-28T09:26:14.876Z,61.1
2017-07-28T09:27:16.547Z,61.6
2017-07-28T09:28:18.212Z,61.8
2017-07-28T09:29:19.922Z,59.2
2017-07-28T09:30:21.606Z,57.1
2017-07-28T09:31:23.275Z,56.1
2017-07-28T09:32:24.948Z,54.5
2017-07-28T09:33:26.633Z,56.4
2017-07-28T09:34:28.307Z,58.1
2017-07-28T09:35:29.992Z,59.9
2017-07-28T09:36:31.659Z,61.4
2017-07-28T09:37:33.376Z,63.1
2017-07-28T09:38:35.067Z,61.7
2017-07-28T09:39:36.744Z,62.3
2017-07-28T09:40:38.424Z,62.7
2017-07-28T09:41:40.101Z,63.6
2017-07-28T09:42:41.779Z,63.4
2017-07-28T09:43:43.456Z,62.4
2017-07-28T09:44:45.137Z,61.8
2017-07-28T09:45:46.821Z,61.4
2017-07-28T09:46:48.497Z,61.9
2017-07-28T09:47:50.186Z,60.4
2017-07-28T09:48:51.861Z,59.7
2017-07-28T09:49:53.533Z,60.5
2017-07-28T09:50:55.209Z,61.8
2017-07-28T09:51:56.881Z,62.4
2017-07-28T09:52:58.565Z,62.2
2017-07-28T09:54:00.225Z,62.9
2017-07-28T09:55:01.909Z,62.8
2017-07-28T09:56:03.574Z,63.3
2017-07-28T09:57:05.259Z,63.9
2017-07-28T09:58:06.938Z,63.9
2017-07-28T09:59:08.612Z,64.7
2017-07-28T10:00:10.282Z,65.4
2017-07-28T10:01:11.962Z,65.0
2017-07-28T10:02:13.645Z,64.4
2017-07-28T10:03:15.359Z,63.4
2017-07-28T10:04:17.060Z,63.2
2017-07-28T10:05:18.803Z,62.6
2017-07-28T10:06:20.477Z,62.0
2017-07-28T10:07:22.189Z,61.5
2017-07-28T10:08:23.871Z,60.6
2017-07-28T10:09:25.632Z,62.0
2017-07-28T10:10:27.306Z,62.7
2017-07-28T10:11:29.007Z,63.7
2017-07-28T10:12:30.681Z,64.3
2017-07-28T10:13:32.393Z,64.7
2017-07-28T10:14:34.069Z,66.1
2017-07-28T10:15:35.751Z,65.3
2017-07-28T10:16:37.460Z,65.5
2017-07-28T10:17:39.133Z,65.4
2017-07-28T10:18:40.832Z,64.9
2017-07-28T10:19:42.495Z,65.4
2017-07-28T10:20:44.166Z,64.9
2017-07-28T10:21:45.878Z,64.2
2017-07-28T10:22:47.560Z,64.6
2017-07-28T10:23:49.234Z,64.8
2017-07-28T10:24:50.921Z,64.6
2017-07-28T10:25:52.587Z,63.6
2017-07-28T10:26:54.265Z,63.5
2017-07-28T10:27:55.934Z,63.5
2017-07-28T10:28:57.616Z,63.5
2017-07-28T10:29:59.291Z,64.0
2017-07-28T10:31:01.085Z,63.9
2017-07-28T10:32:02.749Z,63.0
2017-07-28T10:33:04.429Z,63.0
2017-07-28T10:34:06.113Z,63.0
2017-07-28T10:35:07.791Z,63.1
2017-07-28T10:36:09.480Z,62.3
2017-07-28T10:37:11.163Z,60.9
2017-07-28T10:38:12.853Z,60.4
2017-07-28T10:39:14.527Z,60.0
2017-07-28T10:40:16.228Z,60.2
2017-07-28T10:41:17.902Z,58.8
2017-07-28T10:42:19.573Z,57.8
2017-07-28T10:43:21.278Z,57.1
2017-07-28T10:44:22.959Z,56.6
2017-07-28T10:45:24.634Z,56.9
2017-07-28T10:46:26.303Z,56.1
2017-07-28T10:47:27.973Z,57.9
2017-07-28T10:48:29.664Z,57.3
2017-07-28T10:49:31.340Z,56.6
2017-07-28T10:50:33.032Z,56.4
2017-07-28T10:51:34.713Z,56.6
2017-07-28T10:52:36.398Z,57.1
2017-07-28T10:53:38.068Z,57.1
2017-07-28T10:54:39.741Z,57.6
2017-07-28T10:55:41.422Z,57.3
2017-07-28T10:56:43.211Z,56.7
2017-07-28T10:57:44.900Z,55.8
2017-07-28T10:58:46.584Z,52.6
2017-07-28T10:59:48.256Z,49.1
2017-07-28T11:00:49.964Z,48.3
2017-07-28T11:01:51.631Z,47.9
2017-07-28T11:02:53.309Z,47.5
2017-07-28T11:03:54.984Z,48.3
2017-07-28T11:04:56.666Z,47.6
2017-07-28T11:05:58.354Z,48.0
2017-07-28T11:07:00.031Z,48.6
2017-07-28T11:08:01.708Z,47.7
2017-07-28T11:09:03.387Z,48.0
2017-07-28T11:10:05.071Z,47.2
2017-07-28T11:11:06.750Z,48.5
2017-07-28T11:12:08.429Z,49.0
2017-07-28T11:13:10.111Z,50.6
2017-07-28T11:14:11.817Z,49.7
2017-07-28T11:15:13.486Z,49.0
2017-07-28T11:16:15.164Z,50.0
2017-07-28T11:17:16.848Z,50.5
2017-07-28T11:18:18.534Z,51.1
2017-07-28T11:19:20.206Z,51.0
2017-07-28T11:20:21.891Z,49.7
2017-07-28T11:21:23.579Z,45.7
2017-07-28T11:22:25.266Z,44.3
2017-07-28T11:23:26.945Z,45.4
2017-07-28T11:24:28.627Z,45.9
2017-07-28T11:25:30.355Z,47.1
2017-07-28T11:26:32.028Z,48.9
2017-07-28T11:27:33.706Z,50.3
2017-07-28T11:28:35.393Z,50.6
2017-07-28T11:29:37.078Z,48.1
2017-07-28T11:30:38.762Z,47.7
2017-07-28T11:31:40.446Z,46.9
2017-07-28T11:32:42.129Z,47.1
2017-07-28T11:33:43.813Z,47.6
2017-07-28T11:34:45.503Z,48.3
2017-07-28T11:35:47.211Z,49.5
2017-07-28T11:36:48.886Z,49.6
2017-07-28T11:37:50.555Z,50.4
2017-07-28T11:38:52.283Z,50.8
2017-07-28T11:39:53.969Z,52.2
2017-07-28T11:40:55.661Z,54.4
2017-07-28T11:41:57.334Z,54.4
2017-07-28T11:42:59.021Z,55.1
2017-07-28T11:44:00.695Z,55.6
2017-07-28T11:45:02.374Z,56.1
2017-07-28T11:46:04.047Z,53.7
2017-07-28T11:47:05.718Z,52.8
2017-07-28T11:48:07.528Z,52.8
2017-07-28T11:49:09.213Z,53.7
2017-07-28T11:50:10.893Z,55.4
2017-07-28T11:51:12.566Z,54.2
2017-07-28T11:52:14.280Z,55.9
2017-07-28T11:53:15.965Z,57.0
2017-07-28T11:54:17.636Z,57.4
2017-07-28T11:55:19.322Z,57.1
2017-07-28T11:56:21.003Z,57.9
2017-07-28T11:57:22.688Z,55.8
2017-07-28T11:58:24.362Z,55.9
2017-07-28T11:59:26.043Z,55.7
2017-07-28T12:00:27.725Z,55.4
2017-07-28T12:01:29.420Z,55.7
2017-07-28T12:02:31.100Z,56.6
2017-07-28T12:03:32.828Z,56.9
2017-07-28T12:04:34.524Z,55.2
2017-07-28T12:05:36.206Z,50.4
2017-07-28T12:06:37.960Z,50.7
2017-07-28T12:07:39.634Z,50.9
2017-07-28T12:08:41.309Z,51.2
2017-07-28T12:09:43.033Z,52.2
2017-07-28T12:10:44.736Z,52.7
2017-07-28T12:11:46.416Z,52.4
2017-07-28T12:12:48.300Z,54.0
2017-07-28T12:13:49.995Z,53.2
2017-07-28T12:14:51.669Z,51.7
2017-07-28T12:15:53.366Z,52.3
2017-07-28T12:18:04.701Z,50.8
2017-07-28T12:19:06.389Z,49.0
2017-07-28T12:20:08.065Z,48.3
2017-07-28T12:21:09.754Z,48.4
2017-07-28T12:22:11.429Z,47.3
2017-07-28T12:23:13.107Z,45.6
2017-07-28T12:24:14.778Z,46.3
2017-07-28T12:25:16.457Z,46.0
2017-07-28T12:26:18.138Z,47.5
2017-07-28T12:27:19.824Z,49.6
2017-07-28T12:28:21.497Z,49.7
2017-07-28T12:29:23.175Z,50.8
2017-07-28T12:30:24.864Z,50.6
2017-07-28T12:31:26.545Z,50.9
2017-07-28T12:32:28.219Z,52.9
2017-07-28T12:33:29.915Z,52.2
2017-07-28T12:34:31.589Z,52.6
2017-07-28T12:35:33.279Z,53.6
2017-07-28T12:36:34.950Z,53.3
2017-07-28T12:37:36.691Z,54.3
2017-07-28T12:38:38.401Z,53.2
2017-07-28T12:39:40.079Z,51.0
2017-07-28T12:40:41.815Z,49.2
2017-07-28T12:41:43.493Z,47.5
2017-07-28T12:42:45.163Z,48.4
2017-07-28T12:43:46.840Z,48.6
2017-07-28T12:44:48.522Z,47.5
2017-07-28T12:45:50.200Z,47.4
2017-07-28T12:46:51.888Z,47.2
2017-07-28T12:47:53.571Z,47.7
2017-07-28T12:48:55.251Z,47.3
2017-07-28T12:49:56.925Z,46.9
2017-07-28T12:50:58.617Z,45.5
2017-07-28T12:52:00.306Z,43.8
2017-07-28T12:53:01.990Z,43.6
2017-07-28T12:54:03.671Z,44.0
2017-07-28T12:55:05.347Z,45.2
2017-07-28T12:56:07.021Z,44.9
2017-07-28T12:57:08.700Z,44.8
2017-07-28T12:58:10.371Z,43.7
2017-07-28T12:59:12.067Z,44.2
2017-07-28T13:00:13.747Z,43.3
2017-07-28T13:01:15.426Z,42.8
2017-07-28T13:02:17.103Z,43.0
2017-07-28T13:03:18.786Z,42.0
2017-07-28T13:04:20.475Z,43.4
2017-07-28T13:05:22.212Z,43.7
2017-07-28T13:06:23.891Z,44.0
2017-07-28T13:07:25.660Z,43.5
2017-07-28T13:08:27.391Z,43.8
2017-07-28T13:09:29.065Z,42.7
2017-07-28T13:10:30.740Z,42.1
2017-07-28T13:11:32.437Z,41.7
2017-07-28T13:12:34.104Z,41.9
2017-07-28T13:13:35.824Z,41.6
2017-07-28T13:14:37.578Z,42.4
2017-07-28T13:15:39.419Z,42.3
2017-07-28T13:16:41.349Z,42.1
2017-07-28T14:27:03.627Z,44.9
2017-07-28T14:28:05.329Z,44.4
2017-07-28T14:29:07.068Z,44.2
2017-07-28T14:30:08.749Z,45.4
2017-07-28T14:31:10.484Z,45.6
2017-07-28T14:32:12.230Z,46.6
2017-07-28T14:33:13.945Z,47.1
2017-07-28T14:34:15.650Z,48.8
2017-07-28T14:35:18.160Z,49.0
2017-07-28T14:36:19.962Z,50.0
2017-07-28T14:37:21.786Z,49.2
2017-07-28T14:38:23.603Z,49.3
2017-07-28T14:39:25.442Z,50.7
2017-07-28T14:40:27.254Z,51.5
2017-07-28T14:41:28.952Z,51.9
2017-07-28T14:42:30.701Z,52.1
2017-07-28T14:43:32.572Z,52.5
2017-07-28T14:44:34.497Z,53.3
2017-07-28T14:45:36.318Z,52.6
2017-07-28T14:46:38.161Z,53.8